Time;durP1;ratioP1;P1;durP2;ratioP2;P2;SDS_P1;SDS_P2;PMS_P1;PMS_P2;Temp;Humidity;BMP_temperature;BMP_pressure;BME280_temperature;BME280_humidity;BME280_pressure;Samples;Min_cycle;Max_cycle;Signal;HPM_P1;HPM_P2
2022/06/30 00:01:30;;;;;;;3.30;2.97;;;23.20;99.90;;;;;;5092200;28;20020;-81
2022/06/30 00:03:56;;;;;;;3.10;2.90;;;23.20;99.90;;;;;;5093304;28;20028;-81
2022/06/30 00:06:21;;;;;;;4.28;3.08;;;23.20;99.90;;;;;;5093661;28;20186;-81
2022/06/30 00:08:47;;;;;;;3.47;2.95;;;23.20;99.90;;;;;;5093246;28;20145;-81
2022/06/30 00:11:13;;;;;;;3.83;3.40;;;23.20;99.90;;;;;;5092102;28;20031;-81
2022/06/30 00:13:41;;;;;;;3.38;2.63;;;23.20;99.90;;;;;;5092650;28;20355;-81
2022/06/30 00:16:07;;;;;;;3.63;2.70;;;23.20;99.90;;;;;;5091850;28;20028;-81
2022/06/30 00:18:33;;;;;;;4.30;2.85;;;23.20;99.90;;;;;;5093196;28;20028;-81
2022/06/30 00:20:59;;;;;;;3.47;3.00;;;23.20;99.90;;;;;;5092961;28;20026;-82
2022/06/30 00:23:25;;;;;;;3.17;2.92;;;23.20;99.90;;;;;;5091942;28;20110;-81
2022/06/30 00:25:51;;;;;;;6.07;3.15;;;23.20;99.90;;;;;;5093145;28;20020;-82
2022/06/30 00:28:19;;;;;;;5.78;3.10;;;23.20;99.90;;;;;;5091499;28;20030;-82
2022/06/30 00:30:49;;;;;;;4.03;3.03;;;23.20;99.90;;;;;;5091569;28;20023;-81
2022/06/30 00:33:15;;;;;;;3.55;3.15;;;23.20;99.90;;;;;;5091928;28;20035;-81
2022/06/30 00:35:41;;;;;;;2.85;2.55;;;23.20;99.90;;;;;;5093026;28;20027;-81
2022/06/30 00:38:07;;;;;;;2.78;2.45;;;23.10;99.90;;;;;;5091537;28;20024;-81
2022/06/30 00:40:37;;;;;;;4.68;2.53;;;23.10;99.90;;;;;;5091579;28;20030;-81
2022/06/30 00:43:04;;;;;;;2.60;2.40;;;23.10;99.90;;;;;;5091444;28;20020;-81
2022/06/30 00:45:29;;;;;;;2.97;1.92;;;23.20;99.90;;;;;;5091534;28;20115;-81
2022/06/30 00:47:55;;;;;;;5.20;2.58;;;23.30;99.90;;;;;;5091413;28;20119;-82
2022/06/30 00:50:21;;;;;;;6.00;2.70;;;23.40;99.90;;;;;;5092707;28;20035;-82
2022/06/30 00:52:50;;;;;;;3.75;2.67;;;23.50;99.90;;;;;;5091382;28;20039;-82
2022/06/30 00:55:18;;;;;;;4.93;2.92;;;23.60;99.90;;;;;;5092557;28;20157;-81
2022/06/30 00:57:44;;;;;;;3.50;3.22;;;23.60;99.90;;;;;;5091223;28;20031;-81
2022/06/30 01:00:12;;;;;;;5.70;2.95;;;23.60;99.90;;;;;;5092413;28;20032;-82
2022/06/30 01:02:38;;;;;;;4.53;2.63;;;23.50;99.90;;;;;;5091224;28;20107;-82
2022/06/30 01:05:05;;;;;;;4.38;2.90;;;23.50;99.90;;;;;;5091012;28;20044;-82
2022/06/30 01:07:31;;;;;;;5.72;2.58;;;23.40;99.90;;;;;;5090859;28;20050;-82
2022/06/30 01:12:46;;;;;;;4.93;3.22;;;23.30;99.90;;;;;;5092265;28;20047;-81
2022/06/30 01:15:17;;;;;;;4.97;3.42;;;23.20;99.90;;;;;;5090916;28;20498;-81
2022/06/30 01:17:43;;;;;;;5.20;3.00;;;23.10;99.90;;;;;;5091968;28;20021;-81
2022/06/30 01:20:09;;;;;;;5.85;3.28;;;23.00;99.90;;;;;;5091002;28;20031;-82
2022/06/30 01:22:35;;;;;;;4.28;2.92;;;22.90;99.90;;;;;;5090941;28;20454;-81
2022/06/30 01:25:01;;;;;;;5.80;3.63;;;22.90;99.90;;;;;;5090743;28;20054;-81
2022/06/30 01:27:27;;;;;;;4.10;3.08;;;22.80;99.90;;;;;;5090850;28;20489;-81
2022/06/30 01:29:53;;;;;;;3.33;3.03;;;22.70;99.90;;;;;;5091839;28;20040;-81
2022/06/30 01:32:19;;;;;;;4.45;3.33;;;22.70;99.90;;;;;;5092147;28;20039;-81
2022/06/30 01:34:45;;;;;;;6.85;3.72;;;22.60;99.90;;;;;;5090837;28;20494;-81
2022/06/30 01:37:11;;;;;;;7.13;3.65;;;22.60;99.90;;;;;;5090620;28;20467;-81
2022/06/30 01:39:36;;;;;;;7.65;3.28;;;22.60;99.90;;;;;;5090585;28;20116;-81
2022/06/30 01:42:03;;;;;;;5.07;3.47;;;22.60;99.90;;;;;;5093269;28;20429;-81
2022/06/30 01:44:28;;;;;;;9.18;3.80;;;22.50;99.90;;;;;;5094927;28;20067;-81
2022/06/30 01:46:54;;;;;;;12.73;3.92;;;22.50;99.90;;;;;;5094770;28;20064;-81
2022/06/30 01:49:20;;;;;;;6.22;3.95;;;22.50;99.90;;;;;;5096047;28;20031;-81
2022/06/30 01:51:46;;;;;;;8.27;4.30;;;22.40;99.90;;;;;;5095866;28;20036;-82
2022/06/30 01:54:12;;;;;;;5.72;3.50;;;22.30;99.90;;;;;;5094886;28;20032;-82
2022/06/30 01:56:38;;;;;;;8.40;3.65;;;22.30;99.90;;;;;;5094814;28;20035;-82
2022/06/30 01:59:05;;;;;;;7.22;3.65;;;22.20;99.90;;;;;;5094742;28;20071;-81
2022/06/30 02:01:31;;;;;;;6.43;3.65;;;22.10;99.90;;;;;;5094633;28;20070;-81
2022/06/30 02:04:46;;;;;;;5.85;3.78;;;22.00;99.90;;;;;;5094372;28;20059;-81
2022/06/30 02:06:43;;;;;;;6.10;3.35;;;21.90;99.90;;;;;;5095756;28;20104;-81
2022/06/30 02:09:08;;;;;;;5.00;3.30;;;21.90;99.90;;;;;;5095886;28;20190;-81
2022/06/30 02:11:34;;;;;;;6.80;3.92;;;21.80;99.90;;;;;;5094122;28;20028;-81
2022/06/30 02:14:00;;;;;;;7.60;3.58;;;21.80;99.90;;;;;;5094296;28;20047;-82
2022/06/30 02:16:25;;;;;;;3.58;3.28;;;21.60;99.90;;;;;;5094237;28;20106;-81
2022/06/30 02:18:51;;;;;;;5.10;3.80;;;21.60;99.90;;;;;;5093847;28;20166;-82
2022/06/30 02:21:17;;;;;;;8.65;4.93;;;21.50;99.90;;;;;;5094204;28;20482;-82
2022/06/30 02:23:42;;;;;;;6.25;4.38;;;21.50;99.90;;;;;;5095660;28;20040;-82
2022/06/30 02:26:08;;;;;;;7.32;4.20;;;21.40;99.90;;;;;;5094052;28;20510;-81
2022/06/30 02:28:34;;;;;;;9.30;4.22;;;21.30;99.90;;;;;;5095288;28;20048;-81
2022/06/30 02:30:59;;;;;;;6.40;4.05;;;21.20;99.90;;;;;;5095189;28;20027;-82
2022/06/30 02:33:25;;;;;;;4.72;4.28;;;21.20;99.90;;;;;;5093927;28;20105;-82
2022/06/30 02:35:50;;;;;;;6.78;4.93;;;21.00;99.90;;;;;;5093920;28;20095;-82
2022/06/30 02:38:16;;;;;;;7.50;4.65;;;21.00;99.90;;;;;;5093960;28;20193;-82
2022/06/30 02:40:42;;;;;;;7.00;4.75;;;21.00;99.90;;;;;;5093939;28;20024;-82
2022/06/30 02:43:07;;;;;;;5.05;3.88;;;20.90;99.90;;;;;;5094842;28;20016;-81
2022/06/30 02:45:33;;;;;;;4.68;4.07;;;20.90;99.90;;;;;;5093675;28;20032;-82
2022/06/30 02:47:59;;;;;;;6.95;4.55;;;21.00;99.90;;;;;;5095015;28;20095;-82
2022/06/30 02:50:24;;;;;;;5.28;4.03;;;20.90;99.90;;;;;;5093670;28;20027;-81
2022/06/30 02:52:50;;;;;;;6.38;4.32;;;20.90;99.90;;;;;;5093626;28;20040;-82
2022/06/30 02:55:17;;;;;;;7.05;5.07;;;20.90;99.90;;;;;;5094889;28;20383;-81
2022/06/30 02:57:42;;;;;;;5.65;4.03;;;20.90;99.90;;;;;;5093243;28;20028;-81
2022/06/30 03:00:10;;;;;;;5.10;3.97;;;20.80;99.90;;;;;;5094795;28;20114;-81
2022/06/30 03:02:38;;;;;;;10.88;4.40;;;20.80;99.90;;;;;;5093504;28;20028;-81
2022/06/30 03:05:04;;;;;;;5.10;4.57;;;20.80;99.90;;;;;;5093188;28;20044;-81
2022/06/30 03:07:29;;;;;;;5.60;3.88;;;20.80;99.90;;;;;;5094623;28;20581;-81
2022/06/30 03:09:55;;;;;;;5.30;4.22;;;20.80;99.90;;;;;;5093245;28;20040;-81
2022/06/30 03:12:21;;;;;;;8.10;4.15;;;20.70;99.90;;;;;;5094486;28;20146;-81
2022/06/30 03:14:47;;;;;;;6.78;4.25;;;20.70;99.90;;;;;;5093141;28;20031;-81
2022/06/30 03:17:13;;;;;;;4.95;4.10;;;20.70;99.90;;;;;;5093127;28;20036;-82
2022/06/30 03:19:39;;;;;;;4.35;3.95;;;20.70;99.90;;;;;;5094404;28;20027;-81
2022/06/30 03:22:04;;;;;;;6.75;4.57;;;20.60;99.90;;;;;;5093070;28;20475;-81
2022/06/30 03:24:30;;;;;;;6.50;4.85;;;20.60;99.90;;;;;;5093001;28;20424;-81
2022/06/30 03:26:56;;;;;;;5.78;5.00;;;20.60;99.90;;;;;;5094387;28;20039;-81
2022/06/30 03:29:21;;;;;;;6.05;4.20;;;20.60;99.90;;;;;;5092850;28;20052;-81
2022/06/30 03:31:47;;;;;;;5.47;4.50;;;20.50;99.90;;;;;;5092716;28;20376;-81
2022/06/30 03:34:13;;;;;;;9.18;4.00;;;20.50;99.90;;;;;;5092910;28;20028;-81
2022/06/30 03:36:38;;;;;;;5.60;4.80;;;20.50;99.90;;;;;;5092831;28;20375;-81
2022/06/30 03:39:04;;;;;;;4.88;4.45;;;20.50;99.90;;;;;;5092632;28;20473;-81
2022/06/30 03:41:30;;;;;;;5.57;4.97;;;20.50;99.90;;;;;;5093950;28;20024;-81
2022/06/30 03:43:56;;;;;;;5.82;4.20;;;20.50;99.90;;;;;;5094021;28;20035;-81
2022/06/30 03:46:22;;;;;;;6.13;4.90;;;20.50;99.90;;;;;;5092400;28;20024;-82
2022/06/30 03:48:47;;;;;;;7.25;4.45;;;20.50;99.90;;;;;;5092650;28;20574;-81
2022/06/30 03:51:13;;;;;;;4.80;4.22;;;20.50;99.90;;;;;;5092190;28;20667;-82
2022/06/30 03:53:39;;;;;;;6.68;4.38;;;20.50;99.90;;;;;;5092706;28;20024;-81
2022/06/30 03:56:05;;;;;;;11.20;4.60;;;20.50;99.90;;;;;;5092470;28;20020;-81
2022/06/30 03:58:31;;;;;;;5.45;4.88;;;20.50;99.90;;;;;;5092049;28;20107;-81
2022/06/30 04:00:57;;;;;;;4.72;4.30;;;20.50;99.90;;;;;;5092351;28;20559;-81
2022/06/30 04:03:22;;;;;;;6.60;4.57;;;20.50;99.90;;;;;;5092063;28;20012;-81
2022/06/30 04:05:48;;;;;;;10.38;4.93;;;20.50;99.90;;;;;;5091884;28;20403;-81
2022/06/30 04:08:13;;;;;;;7.35;5.43;;;20.50;99.90;;;;;;5093588;28;20020;-81
2022/06/30 04:10:39;;;;;;;10.10;4.97;;;20.60;99.90;;;;;;5092330;28;20394;-82
2022/06/30 04:13:05;;;;;;;5.55;4.78;;;20.60;99.90;;;;;;5091558;28;20490;-81
2022/06/30 04:15:31;;;;;;;8.82;5.28;;;20.70;99.90;;;;;;5093067;28;20059;-81
2022/06/30 04:17:57;;;;;;;7.18;5.03;;;20.70;99.90;;;;;;5091670;28;20024;-81
2022/06/30 04:20:22;;;;;;;9.05;4.93;;;20.70;99.90;;;;;;5093271;28;20466;-81
2022/06/30 04:22:50;;;;;;;7.68;4.88;;;20.70;99.90;;;;;;5091956;28;20060;-81
2022/06/30 04:25:17;;;;;;;5.47;4.65;;;20.80;99.90;;;;;;5091982;28;20395;-81
2022/06/30 04:27:53;;;;;;;5.70;5.20;;;20.80;99.90;;;;;;5092025;28;20024;-81
2022/06/30 04:32:37;;;;;;;6.20;5.15;;;20.90;99.90;;;;;;5091769;28;20418;-81
2022/06/30 04:33:06;;;;;;;5.85;5.28;;;20.90;99.90;;;;;;5092912;28;20085;-83
2022/06/30 04:35:33;;;;;;;12.50;4.75;;;21.00;99.90;;;;;;5091608;28;20060;-80
2022/06/30 04:38:00;;;;;;;5.95;5.18;;;21.60;99.90;;;;;;5092206;28;20463;-80
2022/06/30 04:43:10;;;;;;;5.32;4.82;;;22.70;99.90;;;;;;5097254;28;20073;-81
2022/06/30 04:45:36;;;;;;;5.03;3.72;;;23.00;99.90;;;;;;5091436;28;20551;-81
2022/06/30 04:48:02;;;;;;;5.75;4.40;;;23.10;99.90;;;;;;5091456;28;20393;-80
2022/06/30 04:50:28;;;;;;;8.77;4.20;;;23.30;99.90;;;;;;5091485;28;20028;-80
2022/06/30 04:52:54;;;;;;;4.90;4.35;;;23.50;99.90;;;;;;5091605;28;20039;-80
2022/06/30 04:55:20;;;;;;;9.52;4.45;;;23.50;99.90;;;;;;5092873;28;20352;-80
2022/06/30 04:57:45;;;;;;;5.65;4.10;;;23.60;99.90;;;;;;5091368;28;20060;-81
2022/06/30 05:00:12;;;;;;;5.80;4.20;;;23.80;99.90;;;;;;5092637;28;20020;-81
2022/06/30 05:02:37;;;;;;;6.15;4.30;;;24.00;99.90;;;;;;5091292;28;20375;-81
2022/06/30 05:05:04;;;;;;;4.95;4.50;;;24.30;99.90;;;;;;5092532;28;20051;-81
2022/06/30 05:07:29;;;;;;;6.60;4.20;;;24.40;99.90;;;;;;5091432;28;20425;-81
2022/06/30 05:09:55;;;;;;;5.50;3.97;;;24.40;99.90;;;;;;5091250;28;20024;-81
2022/06/30 05:12:20;;;;;;;5.70;4.07;;;24.30;99.90;;;;;;5092570;28;20032;-80
2022/06/30 05:14:46;;;;;;;7.45;4.90;;;24.10;99.90;;;;;;5091094;28;20078;-80
2022/06/30 05:17:12;;;;;;;4.22;3.70;;;24.00;99.90;;;;;;5091813;28;20054;-80
2022/06/30 05:19:38;;;;;;;10.68;5.20;;;24.00;99.90;;;;;;5092554;28;20081;-80
2022/06/30 05:22:04;;;;;;;4.32;3.92;;;24.00;99.90;;;;;;5091172;28;20502;-80
2022/06/30 05:27:14;;;;;;;9.68;4.80;;;24.20;99.90;;;;;;5092593;28;20097;-80
2022/06/30 05:29:40;;;;;;;5.30;4.53;;;24.30;99.90;;;;;;5092281;28;20012;-80
2022/06/30 05:32:06;;;;;;;7.07;4.00;;;24.30;99.90;;;;;;5090975;28;20038;-80
2022/06/30 05:34:32;;;;;;;6.03;4.07;;;24.30;99.90;;;;;;5092328;28;20025;-80
2022/06/30 05:36:58;;;;;;;8.77;4.50;;;24.40;99.90;;;;;;5090899;28;20434;-80
2022/06/30 05:39:24;;;;;;;8.10;4.05;;;24.40;99.90;;;;;;5090867;28;20127;-80
2022/06/30 05:41:49;;;;;;;6.18;4.20;;;24.50;99.90;;;;;;5091048;28;20051;-81
2022/06/30 05:44:15;;;;;;;5.50;3.63;;;24.80;99.90;;;;;;5090803;28;20028;-80
2022/06/30 05:46:41;;;;;;;4.05;3.65;;;24.80;99.90;;;;;;5090980;28;20024;-80
2022/06/30 05:49:08;;;;;;;9.25;4.53;;;24.90;99.90;;;;;;5092133;28;20020;-80
2022/06/30 05:51:34;;;;;;;8.60;4.82;;;25.30;99.90;;;;;;5090893;28;20391;-81
2022/06/30 05:54:00;;;;;;;6.35;4.82;;;25.40;99.90;;;;;;5090801;28;20024;-80
2022/06/30 05:56:25;;;;;;;5.65;4.57;;;25.50;99.90;;;;;;5091879;28;20106;-80
2022/06/30 05:58:51;;;;;;;7.80;4.10;;;25.50;99.90;;;;;;5090671;28;20020;-81
2022/06/30 06:01:18;;;;;;;5.90;4.78;;;25.50;99.90;;;;;;5092137;28;20430;-80
2022/06/30 06:03:44;;;;;;;9.57;4.75;;;25.50;99.90;;;;;;5090758;28;20375;-80
2022/06/30 06:06:10;;;;;;;10.52;4.35;;;25.50;99.90;;;;;;5091760;28;20123;-81
2022/06/30 06:08:35;;;;;;;4.97;4.47;;;25.70;99.90;;;;;;5090545;28;20119;-80
2022/06/30 06:11:01;;;;;;;5.80;4.35;;;25.70;99.90;;;;;;5091662;28;20544;-81
2022/06/30 06:13:27;;;;;;;5.15;3.60;;;25.80;99.90;;;;;;5090350;28;20395;-80
2022/06/30 06:15:53;;;;;;;6.35;3.67;;;25.90;99.90;;;;;;5090523;28;20069;-82
2022/06/30 06:18:18;;;;;;;6.15;4.18;;;26.00;99.90;;;;;;5091640;28;20024;-80
2022/06/30 06:20:45;;;;;;;6.05;3.75;;;26.10;99.90;;;;;;5091971;28;20117;-78
2022/06/30 06:23:10;;;;;;;4.50;3.03;;;26.10;99.90;;;;;;5091923;28;20470;-78
2022/06/30 06:25:36;;;;;;;5.45;3.40;;;27.00;99.90;;;;;;5089919;28;20074;-78
2022/06/30 06:30:47;;;;;;;4.75;3.40;;;26.60;99.90;;;;;;5095186;28;20140;-78
2022/06/30 06:33:12;;;;;;;3.63;3.30;;;26.80;99.90;;;;;;5095282;28;20479;-78
2022/06/30 06:35:38;;;;;;;4.15;3.30;;;26.60;99.90;;;;;;5095069;28;20452;-79
2022/06/30 06:38:04;;;;;;;4.03;2.83;;;26.70;99.90;;;;;;5095220;28;20111;-78
2022/06/30 06:40:30;;;;;;;5.78;3.83;;;;;;;;;;5095104;28;20024;-78
2022/06/30 06:42:57;;;;;;;4.35;2.97;;;;;;;;;;5095469;28;20024;-78
2022/06/30 06:45:25;;;;;;;7.10;3.28;;;;;;;;;;5095156;28;20038;-78
2022/06/30 06:47:51;;;;;;;4.50;3.08;;;27.30;99.90;;;;;;5094978;28;20024;-78
2022/06/30 06:50:16;;;;;;;4.00;3.20;;;27.30;99.90;;;;;;5094093;28;20482;-79
2022/06/30 06:52:45;;;;;;;3.78;3.33;;;;;;;;;;5093922;28;20051;-78
2022/06/30 06:55:11;;;;;;;5.50;3.40;;;;;;;;;;5095438;28;20142;-78
2022/06/30 06:57:38;;;;;;;6.93;3.72;;;27.60;99.90;;;;;;5095169;28;20422;-77
2022/06/30 07:00:09;;;;;;;4.18;3.10;;;27.70;99.90;;;;;;5093886;28;20382;-77
2022/06/30 07:02:35;;;;;;;3.28;2.88;;;27.80;99.90;;;;;;5093805;28;20024;-78
2022/06/30 07:05:01;;;;;;;7.95;2.90;;;;;;;;;;5094837;28;20424;-78
2022/06/30 07:07:29;;;;;;;3.83;3.03;;;;;;;;;;5093842;28;20023;-78
2022/06/30 07:09:55;;;;;;;4.15;2.97;;;27.90;96.50;;;;;;5094935;28;20028;-78
2022/06/30 07:12:20;;;;;;;3.90;3.33;;;28.30;96.30;;;;;;5093480;28;20062;-77
2022/06/30 07:14:46;;;;;;;7.68;3.55;;;28.30;95.10;;;;;;5094718;28;20028;-78
2022/06/30 07:17:11;;;;;;;2.72;2.35;;;28.30;93.50;;;;;;5094758;28;20024;-78
2022/06/30 07:19:37;;;;;;;2.22;2.03;;;28.40;92.30;;;;;;5094590;28;20027;-77
2022/06/30 07:22:03;;;;;;;2.70;2.25;;;28.40;90.10;;;;;;5094650;28;20024;-77
2022/06/30 07:24:29;;;;;;;2.40;2.10;;;28.40;90.40;;;;;;5094145;28;20031;-77
2022/06/30 07:26:54;;;;;;;3.25;2.85;;;28.50;90.50;;;;;;5094647;28;20375;-77
2022/06/30 07:29:20;;;;;;;6.00;2.47;;;28.60;90.60;;;;;;5094432;28;20060;-77
2022/06/30 07:31:46;;;;;;;3.42;3.05;;;28.70;87.80;;;;;;5094592;28;20020;-77
2022/06/30 07:34:11;;;;;;;11.18;2.30;;;28.70;89.70;;;;;;5094336;28;20028;-77
2022/06/30 07:36:37;;;;;;;3.47;2.30;;;28.60;86.00;;;;;;5094403;28;20023;-78
2022/06/30 07:39:03;;;;;;;2.63;2.17;;;28.40;84.70;;;;;;5092273;28;20025;-77
2022/06/30 07:41:29;;;;;;;2.42;2.03;;;28.50;85.70;;;;;;5093062;28;20372;-77
2022/06/30 07:43:55;;;;;;;1.92;1.83;;;28.60;86.20;;;;;;5094540;28;20023;-77
2022/06/30 07:46:20;;;;;;;3.28;2.30;;;28.80;86.10;;;;;;5093220;28;20398;-78
2022/06/30 07:48:47;;;;;;;3.80;2.30;;;28.70;83.50;;;;;;5093001;28;20511;-77
2022/06/30 07:51:15;;;;;;;3.60;2.22;;;28.60;83.50;;;;;;5094345;28;20081;-77
2022/06/30 07:53:40;;;;;;;2.45;2.25;;;28.60;84.90;;;;;;5094212;28;20035;-78
2022/06/30 07:56:06;;;;;;;3.55;2.30;;;28.50;84.60;;;;;;5094116;28;20028;-77
2022/06/30 07:58:33;;;;;;;5.50;1.90;;;28.30;83.00;;;;;;5092593;28;20352;-78
2022/06/30 08:00:59;;;;;;;3.33;2.40;;;28.20;83.60;;;;;;5094104;28;20024;-77
2022/06/30 08:03:25;;;;;;;3.70;2.03;;;28.20;83.50;;;;;;5094021;28;20173;-77
2022/06/30 08:05:51;;;;;;;2.42;2.10;;;28.10;83.50;;;;;;5093793;28;20133;-78
2022/06/30 08:08:16;;;;;;;2.97;2.05;;;28.10;86.70;;;;;;5093841;28;20399;-77
2022/06/30 08:10:42;;;;;;;3.28;2.22;;;28.20;83.60;;;;;;5093770;28;20115;-78
2022/06/30 08:13:08;;;;;;;4.38;2.10;;;28.40;85.90;;;;;;5093855;28;20040;-77
2022/06/30 08:15:34;;;;;;;3.78;2.58;;;28.50;84.60;;;;;;5093467;28;20019;-78
2022/06/30 08:18:07;;;;;;;3.45;2.63;;;28.80;82.60;;;;;;5092159;28;20067;-77
2022/06/30 08:20:34;;;;;;;3.45;2.17;;;28.80;82.80;;;;;;5092199;28;20028;-77
2022/06/30 08:22:59;;;;;;;2.92;2.03;;;28.80;83.00;;;;;;5093338;28;20356;-78
2022/06/30 08:25:26;;;;;;;2.42;1.80;;;28.80;81.50;;;;;;5093487;28;20073;-78
2022/06/30 08:27:52;;;;;;;2.53;1.90;;;28.80;82.60;;;;;;5093322;28;20046;-78
2022/06/30 08:30:18;;;;;;;4.43;2.28;;;28.90;82.60;;;;;;5091941;28;20028;-79
2022/06/30 08:32:44;;;;;;;3.17;1.98;;;29.10;82.00;;;;;;5091525;28;20036;-77
2022/06/30 08:35:10;;;;;;;2.20;2.00;;;29.40;82.40;;;;;;5092852;28;20475;-79
2022/06/30 08:37:36;;;;;;;3.22;2.20;;;29.50;79.70;;;;;;5093009;28;20060;-79
2022/06/30 08:42:47;;;;;;;2.30;2.10;;;29.30;79.90;;;;;;5092833;28;20084;-78
2022/06/30 08:45:13;;;;;;;3.63;2.28;;;29.20;80.30;;;;;;5092484;28;20360;-78
2022/06/30 08:47:43;;;;;;;2.42;1.80;;;29.30;78.90;;;;;;5092849;28;20028;-78
2022/06/30 08:50:10;;;;;;;1.98;1.80;;;29.30;79.50;;;;;;5092727;28;20028;-78
2022/06/30 08:52:57;;;;;;;2.58;2.38;;;29.50;79.50;;;;;;5092699;28;20035;-78
2022/06/30 08:55:28;;;;;;;3.80;2.50;;;29.40;77.90;;;;;;5092879;28;20107;-86
2022/06/30 08:58:07;;;;;;;5.80;2.70;;;29.50;79.50;;;;;;5092554;28;20028;-77
2022/06/30 09:00:35;;;;;;;3.97;2.70;;;29.50;77.50;;;;;;5092420;28;20020;-78
2022/06/30 09:03:02;;;;;;;2.22;2.03;;;29.60;77.40;;;;;;5092430;28;20025;-78
2022/06/30 09:05:28;;;;;;;2.35;2.15;;;29.90;81.50;;;;;;5092234;28;20574;-78
2022/06/30 09:07:54;;;;;;;6.90;2.38;;;30.20;86.20;;;;;;5091210;28;20459;-78
2022/06/30 09:10:22;;;;;;;4.30;2.47;;;30.40;79.50;;;;;;5092294;28;20024;-78
2022/06/30 09:13:00;;;;;;;2.75;2.30;;;30.50;76.80;;;;;;5091871;28;20137;-78
2022/06/30 09:15:30;;;;;;;2.53;2.33;;;30.50;74.20;;;;;;5092418;28;20027;-78
2022/06/30 09:17:58;;;;;;;2.95;2.35;;;30.30;73.90;;;;;;5092236;28;20056;-79
2022/06/30 09:20:37;;;;;;;3.38;2.38;;;30.30;76.20;;;;;;5092285;28;20016;-78
2022/06/30 09:23:27;;;;;;;3.75;2.10;;;30.50;74.40;;;;;;5090896;28;20032;-78
2022/06/30 09:25:56;;;;;;;5.95;1.83;;;30.30;74.30;;;;;;5090894;28;20379;-78
2022/06/30 09:28:38;;;;;;;2.53;2.28;;;30.40;75.80;;;;;;5091993;28;20031;-79
2022/06/30 09:31:04;;;;;;;2.47;2.08;;;30.60;75.20;;;;;;5091867;28;20525;-78
2022/06/30 09:33:39;;;;;;;2.88;2.55;;;30.60;72.20;;;;;;5091830;28;20074;-78
2022/06/30 09:36:26;;;;;;;2.88;2.33;;;30.40;73.70;;;;;;5091859;28;20031;-78
2022/06/30 09:39:06;;;;;;;3.60;2.53;;;30.40;72.90;;;;;;5091849;28;20028;-79
2022/06/30 09:41:35;;;;;;;2.60;2.40;;;30.20;71.70;;;;;;5091992;28;20027;-79
2022/06/30 09:44:05;;;;;;;3.15;1.70;;;30.30;72.60;;;;;;5091950;28;20032;-78
2022/06/30 09:46:32;;;;;;;3.22;2.13;;;30.50;74.20;;;;;;5091690;28;20020;-79
2022/06/30 09:48:57;;;;;;;2.80;2.60;;;30.70;73.60;;;;;;5091899;28;20475;-78
2022/06/30 09:51:23;;;;;;;3.85;2.47;;;30.90;71.00;;;;;;5090336;28;20028;-79
2022/06/30 09:54:09;;;;;;;4.70;2.40;;;30.70;71.10;;;;;;5091804;28;20057;-79
2022/06/30 09:56:35;;;;;;;3.10;2.30;;;30.70;72.00;;;;;;5091774;28;20012;-79
2022/06/30 09:59:04;;;;;;;2.72;2.28;;;30.50;71.50;;;;;;5090503;28;20031;-78
2022/06/30 10:01:49;;;;;;;3.70;2.40;;;30.50;72.70;;;;;;5091726;28;20027;-80
2022/06/30 10:04:17;;;;;;;3.25;2.20;;;30.50;70.80;;;;;;5095803;28;20036;-79
2022/06/30 10:06:43;;;;;;;9.18;2.60;;;30.50;72.80;;;;;;5095743;28;20504;-78
2022/06/30 10:09:10;;;;;;;6.05;2.58;;;30.40;72.70;;;;;;5095770;28;20021;-78
2022/06/30 10:11:36;;;;;;;4.78;2.50;;;30.30;74.50;;;;;;5096306;28;20050;-86
2022/06/30 10:14:02;;;;;;;2.83;2.53;;;30.50;74.10;;;;;;5096402;28;20383;-88
2022/06/30 10:16:29;;;;;;;2.33;2.13;;;30.50;73.90;;;;;;5096721;28;20020;-86
2022/06/30 10:18:56;;;;;;;3.40;2.42;;;30.60;73.10;;;;;;5096140;28;20529;-86
2022/06/30 10:21:22;;;;;;;2.67;2.33;;;30.70;72.60;;;;;;5096172;28;20046;-86
2022/06/30 10:23:50;;;;;;;2.95;2.45;;;30.80;72.00;;;;;;5096151;28;20471;-83
2022/06/30 10:29:03;;;;;;;3.70;2.63;;;30.80;73.00;;;;;;5092629;28;20368;-81
2022/06/30 10:31:45;;;;;;;2.40;2.17;;;30.80;74.40;;;;;;5078908;28;20040;-82
2022/06/30 10:34:18;;;;;;;2.58;2.38;;;30.80;73.30;;;;;;5074438;28;20115;-85
2022/06/30 10:36:57;;;;;;;3.13;2.80;;;30.90;73.30;;;;;;5075338;28;20032;-83
2022/06/30 10:39:34;;;;;;;4.80;2.28;;;30.80;74.00;;;;;;5074160;28;20032;-82
2022/06/30 10:42:00;;;;;;;2.95;2.60;;;30.90;74.20;;;;;;5073648;28;20558;-82
2022/06/30 10:44:27;;;;;;;3.13;2.30;;;30.90;73.20;;;;;;5073662;28;20028;-83
2022/06/30 10:46:55;;;;;;;3.38;2.20;;;30.90;73.30;;;;;;5073760;28;20074;-82
2022/06/30 10:49:25;;;;;;;3.08;2.55;;;30.80;73.40;;;;;;5073711;28;20025;-82
2022/06/30 10:52:17;;;;;;;3.45;2.08;;;30.80;73.90;;;;;;5073886;28;20032;-83
2022/06/30 10:54:45;;;;;;;2.50;2.30;;;30.90;73.90;;;;;;5073572;28;20494;-83
2022/06/30 10:57:12;;;;;;;3.60;2.17;;;31.00;73.60;;;;;;5073789;28;20027;-82
2022/06/30 10:59:41;;;;;;;2.42;2.22;;;30.90;72.80;;;;;;5074842;28;20082;-83
2022/06/30 11:02:07;;;;;;;2.50;2.30;;;30.80;74.10;;;;;;5073606;28;20036;-82
2022/06/30 11:04:36;;;;;;;4.28;2.60;;;30.90;72.50;;;;;;5073313;28;20140;-83
2022/06/30 11:07:24;;;;;;;4.30;2.58;;;31.10;71.70;;;;;;5075072;28;20460;-82
2022/06/30 11:09:55;;;;;;;5.18;2.47;;;31.70;71.20;;;;;;5073415;28;20029;-83
2022/06/30 11:12:31;;;;;;;7.93;2.47;;;31.30;69.50;;;;;;5073692;28;20123;-83
2022/06/30 11:14:59;;;;;;;4.28;2.92;;;31.50;69.10;;;;;;5072199;28;20036;-82
2022/06/30 11:17:27;;;;;;;3.10;2.28;;;31.40;69.40;;;;;;5073306;28;20013;-82
2022/06/30 11:20:10;;;;;;;2.83;2.63;;;31.40;69.50;;;;;;5074263;28;20016;-82
2022/06/30 11:22:36;;;;;;;3.05;2.30;;;31.40;71.30;;;;;;5073330;28;20467;-83
2022/06/30 11:25:11;;;;;;;3.28;2.20;;;31.40;69.80;;;;;;5073172;28;20089;-83
2022/06/30 11:27:38;;;;;;;2.60;2.40;;;31.50;70.70;;;;;;5073170;28;20112;-83
2022/06/30 11:30:03;;;;;;;2.55;2.35;;;31.70;69.00;;;;;;5073234;28;20028;-83
2022/06/30 11:32:29;;;;;;;2.60;2.40;;;31.80;71.20;;;;;;5074087;28;20382;-82
2022/06/30 11:34:58;;;;;;;2.55;2.35;;;32.10;70.50;;;;;;5074075;28;20027;-82
2022/06/30 11:37:33;;;;;;;2.67;2.42;;;32.30;69.60;;;;;;5072764;28;20035;-83
2022/06/30 11:40:01;;;;;;;5.07;2.28;;;32.40;69.10;;;;;;5072609;28;20434;-82
2022/06/30 11:42:27;;;;;;;4.03;2.92;;;32.50;67.60;;;;;;5072916;28;20044;-82
2022/06/30 11:44:53;;;;;;;5.80;2.58;;;32.30;67.90;;;;;;5072854;28;20463;-82
2022/06/30 11:47:21;;;;;;;2.97;2.72;;;32.40;69.20;;;;;;5072696;28;20037;-82
2022/06/30 11:50:00;;;;;;;2.35;2.15;;;32.40;70.20;;;;;;5072785;28;20048;-83
2022/06/30 11:52:29;;;;;;;5.53;2.67;;;32.30;68.10;;;;;;5072899;28;20041;-82
2022/06/30 11:55:06;;;;;;;2.63;2.35;;;32.30;68.70;;;;;;5072398;28;20012;-82
2022/06/30 11:57:40;;;;;;;2.58;2.35;;;32.40;68.10;;;;;;5072492;28;20153;-82
2022/06/30 12:00:09;;;;;;;4.78;2.33;;;32.70;69.30;;;;;;5072634;28;20416;-82
2022/06/30 12:02:36;;;;;;;3.13;2.60;;;32.70;67.40;;;;;;5072421;28;20111;-83
2022/06/30 12:05:05;;;;;;;3.05;2.70;;;32.60;68.30;;;;;;5072042;28;20124;-82
2022/06/30 12:07:33;;;;;;;2.72;2.53;;;32.80;69.50;;;;;;5072566;28;20024;-82
2022/06/30 12:10:00;;;;;;;3.08;2.70;;;32.80;67.90;;;;;;5074312;28;20028;-82
2022/06/30 12:12:28;;;;;;;4.68;2.42;;;32.80;68.60;;;;;;5073358;28;20039;-83
2022/06/30 12:14:56;;;;;;;4.20;2.88;;;32.80;68.00;;;;;;5074475;28;20438;-83
2022/06/30 12:17:23;;;;;;;3.22;2.88;;;32.80;68.00;;;;;;5073502;28;20023;-83
2022/06/30 12:19:51;;;;;;;4.65;3.05;;;32.60;68.20;;;;;;5072992;28;20025;-83
2022/06/30 12:22:17;;;;;;;3.58;3.28;;;32.70;70.00;;;;;;5073690;28;20082;-83
2022/06/30 12:24:46;;;;;;;4.13;2.40;;;33.00;69.20;;;;;;5074173;28;20017;-82
2022/06/30 12:27:35;;;;;;;3.65;3.00;;;33.30;68.20;;;;;;5072713;28;20025;-83
2022/06/30 12:30:06;;;;;;;3.17;2.45;;;33.50;67.10;;;;;;5073378;28;20009;-77
2022/06/30 12:32:31;;;;;;;2.75;2.42;;;33.60;66.40;;;;;;5093476;28;20035;-87
2022/06/30 12:35:03;;;;;;;3.15;2.70;;;33.80;66.90;;;;;;5093956;28;20020;-84
2022/06/30 12:37:33;;;;;;;4.15;3.17;;;34.00;68.80;;;;;;5092951;28;20111;-89
2022/06/30 12:40:02;;;;;;;3.63;3.13;;;34.10;68.30;;;;;;5093282;28;20016;-82
2022/06/30 12:42:41;;;;;;;5.25;2.83;;;34.00;65.00;;;;;;5093035;28;20089;-77
2022/06/30 12:45:34;;;;;;;2.90;2.65;;;33.80;66.90;;;;;;5096526;28;20076;-93
2022/06/30 12:48:00;;;;;;;4.32;2.70;;;33.80;66.50;;;;;;5096889;28;20032;-81
2022/06/30 12:50:25;;;;;;;3.47;2.78;;;33.80;67.80;;;;;;5093949;28;20415;-86
2022/06/30 12:52:51;;;;;;;5.65;2.60;;;33.70;66.30;;;;;;5093972;28;20040;-85
2022/06/30 12:55:17;;;;;;;3.25;2.95;;;33.50;66.40;;;;;;5091900;28;20173;-83
2022/06/30 12:57:49;;;;;;;3.33;2.60;;;33.50;68.10;;;;;;5091637;28;20032;-83
2022/06/30 13:00:15;;;;;;;2.38;2.15;;;33.40;68.70;;;;;;5093694;28;20020;-85
2022/06/30 13:02:42;;;;;;;4.65;2.35;;;33.50;68.50;;;;;;5093356;28;20048;-79
2022/06/30 13:05:13;;;;;;;7.55;2.75;;;33.60;68.60;;;;;;5091072;28;20044;-80
2022/06/30 13:07:39;;;;;;;3.45;2.65;;;33.60;65.80;;;;;;5092412;28;20028;-81